Etusivu
METAR-TAF:

METAR-TAF

Lentoasemat :

Tétouan, Marokko

Leveyspiiri: 35-35N, Pituuspiiri: 005-20W, korkeus merenpinnasta: 10 m

Tämänhetkinen sää

Tämä raportti tehtiin 1 tunti ja 13 minuuttia sitten, kello 11.00 UTC
Tuuli 6 kn pohjoisesta, vaihdellen luoteen ja pohjoisen/koillisen välillä
Lämpötila 17°C
Kosteus 82%
Ilmanpaine 1029 hPa
Näkyvyys 10 km tai enemmän
Hajanaisia pilviä 1500 ft:n korkeudessa
Hajonneita pilviä 20000 ft:n korkeudessa

METAR: GMTN 181100Z 35006KT 320V020 9999 SCT015 BKN200 17/14 Q1029 NOSIG

Aika: 13:13 (12:13 UTC)


TAF: puuttuu

Säähavainnot ja -ennusteet yli 4000 lentoasemalta (METAR- ja TAF-raportit).

Käytössä olevat sääasemat on merkitty karttaan keltaisilla ja punaisilla pisteillä.

Aseta hiiri pisteen päälle nähdäksesi sääaseman nimen.

Klikkaa sitten nähdäksesi säähavainnot ja -ennusteet.

Kartan vaihtaminen: klikkaa mustalla rastilla varustettuja vihreitä pisteitä, niin voit zoomata sisään; viivalla varustettua vihreää pistettä, niin voit zoomata ulos tai vihreitä nuolia, niin pääset viereisille kartoille.


METAR-TAF: